Terminal Aerodrome Forecast
Issued by NWS Buffalo, NY

Home | Current Version | Previous Version | Text Only | Print | Product List | Glossary On
Versions: 1 2 3 4 5 6 7 8 9 10 11 12 13 14 15 16 17 18 19 20 21 22 23 24 25 26 27 28 29
000
FTUS41 KBUF 040535
TAFBUF
TAF
KBUF 040535Z 0406/0506 21005KT P6SM BKN090
     FM040900 VRB03KT P6SM BKN090
     FM041400 10004KT P6SM BKN070
     FM041800 06010KT P6SM BKN050
     FM050100 07006KT P6SM SCT050 BKN200=

USA.gov is the U.S. government's official web portal to all federal, state and local government web resources and services.